sensor_id;sensor_type;location;lat;lon;timestamp;pressure;altitude;pressure_sealevel;temperature;humidity
67109;BME280;54027;50.786;7.058;2024-03-23T00:55:59;100386.38;;;8.30;100.00
67109;BME280;54027;50.786;7.058;2024-03-23T00:58:24;100392.41;;;8.25;100.00
67109;BME280;54027;50.786;7.058;2024-03-23T01:00:49;100383.84;;;8.24;100.00
67109;BME280;54027;50.786;7.058;2024-03-23T01:03:15;100372.66;;;8.24;100.00
67109;BME280;54027;50.786;7.058;2024-03-23T01:05:40;100381.28;;;8.21;100.00
67109;BME280;54027;50.786;7.058;2024-03-23T01:08:06;100386.41;;;8.17;100.00
67109;BME280;54027;50.786;7.058;2024-03-23T01:10:31;100383.00;;;8.18;100.00
67109;BME280;54027;50.786;7.058;2024-03-23T01:12:57;100377.03;;;8.13;100.00
67109;BME280;54027;50.786;7.058;2024-03-23T01:15:22;100371.88;;;8.10;100.00
67109;BME280;54027;50.786;7.058;2024-03-23T01:17:47;100373.63;;;8.06;100.00
67109;BME280;54027;50.786;7.058;2024-03-23T01:20:13;100372.75;;;8.06;100.00
67109;BME280;54027;50.786;7.058;2024-03-23T01:22:38;100372.75;;;8.06;100.00
67109;BME280;54027;50.786;7.058;2024-03-23T01:25:04;100377.06;;;8.02;100.00
67109;BME280;54027;50.786;7.058;2024-03-23T01:27:29;100372.78;;;8.02;100.00
67109;BME280;54027;50.786;7.058;2024-03-23T01:29:55;100374.47;;;8.05;100.00
67109;BME280;54027;50.786;7.058;2024-03-23T01:32:20;100373.59;;;8.05;100.00
67109;BME280;54027;50.786;7.058;2024-03-23T01:34:45;100371.94;;;8.00;100.00
67109;BME280;54027;50.786;7.058;2024-03-23T01:37:11;100370.22;;;7.99;100.00
67109;BME280;54027;50.786;7.058;2024-03-23T01:39:36;100363.34;;;7.95;100.00
67109;BME280;54027;50.786;7.058;2024-03-23T01:42:02;100367.66;;;7.93;100.00
67109;BME280;54027;50.786;7.058;2024-03-23T01:44:27;100371.06;;;7.95;100.00
67109;BME280;54027;50.786;7.058;2024-03-23T01:46:53;100376.25;;;7.91;100.00
67109;BME280;54027;50.786;7.058;2024-03-23T01:49:18;100362.56;;;7.86;100.00
67109;BME280;54027;50.786;7.058;2024-03-23T01:51:44;100347.09;;;7.84;100.00
67109;BME280;54027;50.786;7.058;2024-03-23T01:54:10;100348.78;;;7.90;100.00
67109;BME280;54027;50.786;7.058;2024-03-23T01:56:35;100346.25;;;7.81;100.00
67109;BME280;54027;50.786;7.058;2024-03-23T01:59:05;100334.28;;;7.77;100.00
67109;BME280;54027;50.786;7.058;2024-03-23T02:01:31;100342.00;;;7.78;100.00
67109;BME280;54027;50.786;7.058;2024-03-23T02:03:56;100345.47;;;7.71;100.00
67109;BME280;54027;50.786;7.058;2024-03-23T02:06:22;100333.47;;;7.60;100.00
67109;BME280;54027;50.786;7.058;2024-03-23T02:08:49;100336.06;;;7.54;100.00
67109;BME280;54027;50.786;7.058;2024-03-23T02:11:14;100337.81;;;7.45;100.00
67109;BME280;54027;50.786;7.058;2024-03-23T02:13:40;100347.25;;;7.42;100.00
67109;BME280;54027;50.786;7.058;2024-03-23T02:16:05;100342.97;;;7.38;100.00
67109;BME280;54027;50.786;7.058;2024-03-23T02:18:32;100336.97;;;7.36;100.00
67109;BME280;54027;50.786;7.058;2024-03-23T02:20:57;100342.13;;;7.33;100.00
67109;BME280;54027;50.786;7.058;2024-03-23T02:23:23;100348.97;;;7.31;100.00
67109;BME280;54027;50.786;7.058;2024-03-23T02:25:49;100343.88;;;7.26;100.00
67109;BME280;54027;50.786;7.058;2024-03-23T02:28:15;100351.59;;;7.17;100.00
67109;BME280;54027;50.786;7.058;2024-03-23T02:30:40;100347.28;;;7.15;100.00
67109;BME280;54027;50.786;7.058;2024-03-23T02:33:05;100354.97;;;7.07;100.00
67109;BME280;54027;50.786;7.058;2024-03-23T02:35:31;100359.28;;;7.05;100.00
67109;BME280;54027;50.786;7.058;2024-03-23T02:37:56;100355.84;;;7.02;100.00
67109;BME280;54027;50.786;7.058;2024-03-23T02:40:23;100347.28;;;6.98;100.00
67109;BME280;54027;50.786;7.058;2024-03-23T02:42:49;100337.88;;;6.96;100.00
67109;BME280;54027;50.786;7.058;2024-03-23T02:45:14;100350.72;;;6.89;100.00
67109;BME280;54027;50.786;7.058;2024-03-23T02:47:40;100358.41;;;6.89;100.00
67109;BME280;54027;50.786;7.058;2024-03-23T02:50:05;100357.56;;;6.83;100.00
67109;BME280;54027;50.786;7.058;2024-03-23T02:52:31;100361.00;;;6.79;100.00
67109;BME280;54027;50.786;7.058;2024-03-23T02:54:57;100372.97;;;6.81;100.00
67109;BME280;54027;50.786;7.058;2024-03-23T02:57:23;100377.25;;;6.79;100.00
67109;BME280;54027;50.786;7.058;2024-03-23T02:59:48;100377.25;;;6.78;100.00
67109;BME280;54027;50.786;7.058;2024-03-23T03:02:14;100379.81;;;6.76;100.00
67109;BME280;54027;50.786;7.058;2024-03-23T03:04:40;100383.25;;;6.66;100.00
67109;BME280;54027;50.786;7.058;2024-03-23T03:07:05;100378.09;;;6.54;100.00
67109;BME280;54027;50.786;7.058;2024-03-23T03:09:30;100384.03;;;6.33;100.00
67109;BME280;54027;50.786;7.058;2024-03-23T03:11:56;100386.56;;;6.24;100.00
67109;BME280;54027;50.786;7.058;2024-03-23T03:14:22;100388.22;;;6.12;100.00
67109;BME280;54027;50.786;7.058;2024-03-23T03:16:47;100391.66;;;6.05;100.00
67109;BME280;54027;50.786;7.058;2024-03-23T03:19:13;100385.66;;;6.01;100.00
67109;BME280;54027;50.786;7.058;2024-03-23T03:21:38;100375.34;;;5.92;100.00
67109;BME280;54027;50.786;7.058;2024-03-23T03:24:06;100381.31;;;5.88;100.00
67109;BME280;54027;50.786;7.058;2024-03-23T03:26:31;100395.84;;;5.86;100.00
67109;BME280;54027;50.786;7.058;2024-03-23T03:28:57;100390.69;;;5.88;100.00
67109;BME280;54027;50.786;7.058;2024-03-23T03:31:22;100390.69;;;5.86;100.00
67109;BME280;54027;50.786;7.058;2024-03-23T03:33:49;100399.25;;;5.85;100.00
67109;BME280;54027;50.786;7.058;2024-03-23T03:36:15;100388.13;;;5.85;100.00
67109;BME280;54027;50.786;7.058;2024-03-23T03:38:40;100377.03;;;5.87;100.00
67109;BME280;54027;50.786;7.058;2024-03-23T03:41:05;100375.28;;;5.85;100.00
67109;BME280;54027;50.786;7.058;2024-03-23T03:43:34;100382.19;;;5.87;100.00
67109;BME280;54027;50.786;7.058;2024-03-23T03:46:00;100383.00;;;5.85;100.00
67109;BME280;54027;50.786;7.058;2024-03-23T03:48:26;100389.84;;;5.81;100.00
67109;BME280;54027;50.786;7.058;2024-03-23T03:50:52;100400.94;;;5.80;100.00
67109;BME280;54027;50.786;7.058;2024-03-23T03:53:18;100403.47;;;5.78;100.00
67109;BME280;54027;50.786;7.058;2024-03-23T03:55:43;100398.38;;;5.80;100.00
67109;BME280;54027;50.786;7.058;2024-03-23T03:58:09;100397.53;;;5.81;100.00
67109;BME280;54027;50.786;7.058;2024-03-23T04:00:34;100396.66;;;5.81;100.00
67109;BME280;54027;50.786;7.058;2024-03-23T04:03:00;100385.53;;;5.80;100.00
67109;BME280;54027;50.786;7.058;2024-03-23T04:05:26;100388.06;;;5.75;100.00
67109;BME280;54027;50.786;7.058;2024-03-23T04:07:51;100396.66;;;5.77;100.00
67109;BME280;54027;50.786;7.058;2024-03-23T04:10:16;100410.31;;;5.72;100.00
67109;BME280;54027;50.786;7.058;2024-03-23T04:12:43;100410.28;;;5.70;100.00
67109;BME280;54027;50.786;7.058;2024-03-23T04:15:09;100419.72;;;5.74;100.00
67109;BME280;54027;50.786;7.058;2024-03-23T04:17:34;100422.22;;;5.70;100.00
67109;BME280;54027;50.786;7.058;2024-03-23T04:20:00;100417.13;;;5.68;100.00
67109;BME280;54027;50.786;7.058;2024-03-23T04:22:27;100422.22;;;5.70;100.00
67109;BME280;54027;50.786;7.058;2024-03-23T04:24:56;100413.69;;;5.68;100.00
67109;BME280;54027;50.786;7.058;2024-03-23T04:27:22;100417.06;;;5.64;100.00
67109;BME280;54027;50.786;7.058;2024-03-23T04:29:50;100423.06;;;5.64;100.00
67109;BME280;54027;50.786;7.058;2024-03-23T04:32:17;100424.78;;;5.65;100.00
67109;BME280;54027;50.786;7.058;2024-03-23T04:34:43;100425.63;;;5.63;100.00
67109;BME280;54027;50.786;7.058;2024-03-23T04:37:09;100429.06;;;5.63;100.00
67109;BME280;54027;50.786;7.058;2024-03-23T04:39:36;100437.59;;;5.67;100.00
67109;BME280;54027;50.786;7.058;2024-03-23T04:42:02;100442.75;;;5.68;100.00
67109;BME280;54027;50.786;7.058;2024-03-23T04:44:28;100435.06;;;5.70;100.00
67109;BME280;54027;50.786;7.058;2024-03-23T04:46:54;100440.19;;;5.68;100.00
67109;BME280;54027;50.786;7.058;2024-03-23T04:49:19;100443.66;;;5.75;100.00
67109;BME280;54027;50.786;7.058;2024-03-23T04:51:44;100445.34;;;5.71;100.00
67109;BME280;54027;50.786;7.058;2024-03-23T04:54:14;100439.38;;;5.77;100.00
67109;BME280;54027;50.786;7.058;2024-03-23T04:56:39;100439.34;;;5.75;100.00
67109;BME280;54027;50.786;7.058;2024-03-23T04:59:05;100438.50;;;5.73;100.00
67109;BME280;54027;50.786;7.058;2024-03-23T05:01:31;100441.91;;;5.75;100.00
67109;BME280;54027;50.786;7.058;2024-03-23T05:03:57;100436.81;;;5.74;100.00
67109;BME280;54027;50.786;7.058;2024-03-23T05:06:23;100440.22;;;5.71;100.00
67109;BME280;54027;50.786;7.058;2024-03-23T05:08:48;100441.91;;;5.68;100.00
67109;BME280;54027;50.786;7.058;2024-03-23T05:11:14;100435.03;;;5.65;100.00
67109;BME280;54027;50.786;7.058;2024-03-23T05:13:41;100428.22;;;5.70;100.00
67109;BME280;54027;50.786;7.058;2024-03-23T05:16:06;100435.06;;;5.73;100.00
67109;BME280;54027;50.786;7.058;2024-03-23T05:18:31;100431.66;;;5.75;100.00
67109;BME280;54027;50.786;7.058;2024-03-23T05:20:58;100433.41;;;5.79;100.00
67109;BME280;54027;50.786;7.058;2024-03-23T05:23:24;100437.69;;;5.81;100.00
67109;BME280;54027;50.786;7.058;2024-03-23T05:25:49;100440.25;;;5.81;100.00
67109;BME280;54027;50.786;7.058;2024-03-23T05:28:15;100436.84;;;5.85;100.00
67109;BME280;54027;50.786;7.058;2024-03-23T05:30:40;100437.69;;;5.82;100.00
67109;BME280;54027;50.786;7.058;2024-03-23T05:33:06;100441.09;;;5.79;100.00
67109;BME280;54027;50.786;7.058;2024-03-23T05:35:32;100441.06;;;5.73;100.00
67109;BME280;54027;50.786;7.058;2024-03-23T05:37:57;100439.38;;;5.78;100.00
67109;BME280;54027;50.786;7.058;2024-03-23T05:40:25;100444.53;;;5.82;100.00
67109;BME280;54027;50.786;7.058;2024-03-23T05:42:51;100442.81;;;5.79;100.00
67109;BME280;54027;50.786;7.058;2024-03-23T05:45:21;100439.41;;;5.80;100.00
67109;BME280;54027;50.786;7.058;2024-03-23T05:47:47;100439.41;;;5.80;100.00
67109;BME280;54027;50.786;7.058;2024-03-23T05:50:13;100439.38;;;5.77;100.00
67109;BME280;54027;50.786;7.058;2024-03-23T05:52:39;100438.56;;;5.81;100.00
67109;BME280;54027;50.786;7.058;2024-03-23T05:55:05;100440.25;;;5.82;100.00
67109;BME280;54027;50.786;7.058;2024-03-23T05:57:31;100439.41;;;5.82;100.00
67109;BME280;54027;50.786;7.058;2024-03-23T05:59:56;100449.66;;;5.80;100.00
67109;BME280;54027;50.786;7.058;2024-03-23T06:02:22;100457.38;;;5.83;100.00
67109;BME280;54027;50.786;7.058;2024-03-23T06:04:49;100455.66;;;5.85;100.00
67109;BME280;54027;50.786;7.058;2024-03-23T06:07:14;100456.56;;;5.87;100.00
67109;BME280;54027;50.786;7.058;2024-03-23T06:09:41;100453.16;;;5.94;100.00
67109;BME280;54027;50.786;7.058;2024-03-23T06:12:06;100445.44;;;5.91;100.00
67109;BME280;54027;50.786;7.058;2024-03-23T06:14:32;100456.53;;;5.89;100.00
67109;BME280;54027;50.786;7.058;2024-03-23T06:16:58;100453.16;;;5.93;100.00
67109;BME280;54027;50.786;7.058;2024-03-23T06:19:23;100459.09;;;5.84;100.00
67109;BME280;54027;50.786;7.058;2024-03-23T06:21:52;100457.38;;;5.88;100.00
67109;BME280;54027;50.786;7.058;2024-03-23T06:24:17;100455.72;;;5.90;100.00
67109;BME280;54027;50.786;7.058;2024-03-23T06:26:42;100451.41;;;5.84;100.00
67109;BME280;54027;50.786;7.058;2024-03-23T06:29:08;100447.09;;;5.80;100.00
67109;BME280;54027;50.786;7.058;2024-03-23T06:31:34;100441.09;;;5.76;100.00
67109;BME280;54027;50.786;7.058;2024-03-23T06:33:59;100449.63;;;5.77;100.00
67109;BME280;54027;50.786;7.058;2024-03-23T06:36:24;100452.22;;;5.82;100.00
67109;BME280;54027;50.786;7.058;2024-03-23T06:38:50;100445.44;;;5.87;100.00
67109;BME280;54027;50.786;7.058;2024-03-23T06:41:15;100450.56;;;5.87;100.00
67109;BME280;54027;50.786;7.058;2024-03-23T06:43:40;100461.69;;;5.90;100.00
67109;BME280;54027;50.786;7.058;2024-03-23T06:46:06;100475.41;;;5.95;100.00
67109;BME280;54027;50.786;7.058;2024-03-23T06:48:31;100466.88;;;6.01;100.00
67109;BME280;54027;50.786;7.058;2024-03-23T06:50:57;100479.69;;;6.01;100.00
67109;BME280;54027;50.786;7.058;2024-03-23T06:53:23;100472.00;;;6.02;100.00
67109;BME280;54027;50.786;7.058;2024-03-23T06:55:52;100470.31;;;6.09;100.00
67109;BME280;54027;50.786;7.058;2024-03-23T06:58:21;100460.94;;;6.12;100.00
67109;BME280;54027;50.786;7.058;2024-03-23T07:00:47;100464.38;;;6.16;100.00
67109;BME280;54027;50.786;7.058;2024-03-23T07:03:13;100458.41;;;6.18;100.00
67109;BME280;54027;50.786;7.058;2024-03-23T07:05:38;100467.84;;;6.24;100.00
67109;BME280;54027;50.786;7.058;2024-03-23T07:08:04;100467.00;;;6.32;100.00
67109;BME280;54027;50.786;7.058;2024-03-23T07:10:30;100476.44;;;6.38;100.00
67109;BME280;54027;50.786;7.058;2024-03-23T07:12:55;100479.91;;;6.48;100.00
67109;BME280;54027;50.786;7.058;2024-03-23T07:15:20;100479.94;;;6.52;100.00
67109;BME280;54027;50.786;7.058;2024-03-23T07:17:49;100482.53;;;6.58;100.00
67109;BME280;54027;50.786;7.058;2024-03-23T07:20:14;100484.25;;;6.61;100.00
67109;BME280;54027;50.786;7.058;2024-03-23T07:22:40;100494.50;;;6.61;100.00
67109;BME280;54027;50.786;7.058;2024-03-23T07:25:05;100484.25;;;6.68;100.00
67109;BME280;54027;50.786;7.058;2024-03-23T07:27:32;100492.00;;;6.76;100.00
67109;BME280;54027;50.786;7.058;2024-03-23T07:29:57;100495.41;;;6.81;100.00
67109;BME280;54027;50.786;7.058;2024-03-23T07:32:22;100490.28;;;6.88;100.00
67109;BME280;54027;50.786;7.058;2024-03-23T07:34:48;100488.59;;;6.94;100.00
67109;BME280;54027;50.786;7.058;2024-03-23T07:37:13;100478.31;;;6.98;100.00
67109;BME280;54027;50.786;7.058;2024-03-23T07:39:39;100482.63;;;7.10;100.00
67109;BME280;54027;50.786;7.058;2024-03-23T07:42:05;100478.34;;;7.12;100.00
67109;BME280;54027;50.786;7.058;2024-03-23T07:44:30;100474.94;;;7.16;100.00
67109;BME280;54027;50.786;7.058;2024-03-23T07:46:56;100480.94;;;7.22;100.00
67109;BME280;54027;50.786;7.058;2024-03-23T07:49:21;100480.13;;;7.32;100.00
67109;BME280;54027;50.786;7.058;2024-03-23T07:51:47;100491.22;;;7.42;100.00
67109;BME280;54027;50.786;7.058;2024-03-23T07:54:12;100476.69;;;7.50;100.00
67109;BME280;54027;50.786;7.058;2024-03-23T07:56:37;100483.53;;;7.59;100.00
67109;BME280;54027;50.786;7.058;2024-03-23T07:59:03;100470.63;;;7.72;100.00
67109;BME280;54027;50.786;7.058;2024-03-23T08:01:29;100476.56;;;8.08;100.00
67109;BME280;54027;50.786;7.058;2024-03-23T08:03:54;100473.94;;;8.27;100.00
67109;BME280;54027;50.786;7.058;2024-03-23T08:06:20;100489.31;;;8.44;100.00
67109;BME280;54027;50.786;7.058;2024-03-23T08:08:49;100484.19;;;8.35;100.00
67109;BME280;54027;50.786;7.058;2024-03-23T08:11:15;100495.44;;;8.10;100.00
67109;BME280;54027;50.786;7.058;2024-03-23T08:13:42;100496.34;;;7.81;100.00
67109;BME280;54027;50.786;7.058;2024-03-23T08:16:09;100458.66;;;7.65;100.00
67109;BME280;54027;50.786;7.058;2024-03-23T08:18:35;100483.50;;;7.66;100.00
67109;BME280;54027;50.786;7.058;2024-03-23T08:21:04;100435.50;;;7.64;100.00
67109;BME280;54027;50.786;7.058;2024-03-23T08:23:32;100446.63;;;7.66;100.00
67109;BME280;54027;50.786;7.058;2024-03-23T08:26:08;100402.91;;;7.63;97.72
67109;BME280;54027;50.786;7.058;2024-03-23T08:28:34;100392.56;;;7.78;97.13
67109;BME280;54027;50.786;7.058;2024-03-23T08:31:02;100356.59;;;7.72;92.21
67109;BME280;54027;50.786;7.058;2024-03-23T08:33:28;100396.03;;;7.74;94.35
67109;BME280;54027;50.786;7.058;2024-03-23T08:38:21;100372.03;;;7.66;91.44
67109;BME280;54027;50.786;7.058;2024-03-23T08:40:46;100392.53;;;7.90;91.98
67109;BME280;54027;50.786;7.058;2024-03-23T08:43:11;100357.34;;;7.99;89.87
67109;BME280;54027;50.786;7.058;2024-03-23T08:45:37;100370.16;;;8.10;90.02
67109;BME280;54027;50.786;7.058;2024-03-23T08:48:02;100425.00;;;8.26;93.73
67109;BME280;54027;50.786;7.058;2024-03-23T08:50:27;100403.50;;;8.31;92.21
67109;BME280;54027;50.786;7.058;2024-03-23T08:52:53;100409.47;;;8.48;92.79
67109;BME280;54027;50.786;7.058;2024-03-23T08:55:18;100397.38;;;8.55;91.93
67109;BME280;54027;50.786;7.058;2024-03-23T08:57:43;100393.91;;;8.57;91.30
67109;BME280;54027;50.786;7.058;2024-03-23T09:00:09;100413.63;;;8.65;93.03
67109;BME280;54027;50.786;7.058;2024-03-23T09:02:36;100441.94;;;8.71;94.96
67109;BME280;54027;50.786;7.058;2024-03-23T09:05:02;100458.13;;;8.95;97.18
67109;BME280;54027;50.786;7.058;2024-03-23T09:07:30;100457.13;;;9.13;97.89
67109;BME280;54027;50.786;7.058;2024-03-23T09:09:56;100439.00;;;9.21;97.49
67109;BME280;54027;50.786;7.058;2024-03-23T09:12:21;100403.91;;;9.03;94.43
67109;BME280;54027;50.786;7.058;2024-03-23T09:14:47;100490.75;;;8.98;100.00
67109;BME280;54027;50.786;7.058;2024-03-23T09:17:12;100479.69;;;8.79;99.94
67109;BME280;54027;50.786;7.058;2024-03-23T09:19:38;100510.69;;;8.66;100.00
67109;BME280;54027;50.786;7.058;2024-03-23T09:22:04;100463.47;;;8.62;98.61
67109;BME280;54027;50.786;7.058;2024-03-23T09:24:30;100435.06;;;8.70;96.92
67109;BME280;54027;50.786;7.058;2024-03-23T09:26:57;100415.97;;;9.01;95.07
67109;BME280;54027;50.786;7.058;2024-03-23T09:29:22;100308.13;;;9.41;87.98
67109;BME280;54027;50.786;7.058;2024-03-23T09:31:47;100342.31;;;9.64;89.98
67109;BME280;54027;50.786;7.058;2024-03-23T09:34:13;100325.94;;;9.66;87.35
67109;BME280;54027;50.786;7.058;2024-03-23T09:36:38;100319.03;;;9.68;87.57
67109;BME280;54027;50.786;7.058;2024-03-23T09:39:03;100331.97;;;9.67;88.65
67109;BME280;54027;50.786;7.058;2024-03-23T09:41:30;100357.38;;;9.99;90.16
67109;BME280;54027;50.786;7.058;2024-03-23T09:43:56;100277.50;;;10.45;85.83
67109;BME280;54027;50.786;7.058;2024-03-23T09:46:21;100212.75;;;10.55;80.39
67109;BME280;54027;50.786;7.058;2024-03-23T09:48:47;100182.00;;;10.88;78.13
67109;BME280;54027;50.786;7.058;2024-03-23T09:51:13;100213.28;;;10.74;80.13
67109;BME280;54027;50.786;7.058;2024-03-23T09:53:38;100196.19;;;10.65;77.98
67109;BME280;54027;50.786;7.058;2024-03-23T09:56:04;100219.88;;;10.90;79.77
67109;BME280;54027;50.786;7.058;2024-03-23T09:58:30;100124.53;;;10.73;73.41
67109;BME280;54027;50.786;7.058;2024-03-23T10:00:57;100121.97;;;10.73;73.25
67109;BME280;54027;50.786;7.058;2024-03-23T10:03:22;100131.44;;;10.73;74.11
67109;BME280;54027;50.786;7.058;2024-03-23T10:06:00;100126.03;;;10.85;73.00
67109;BME280;54027;50.786;7.058;2024-03-23T10:08:28;100129.72;;;10.73;72.89
67109;BME280;54027;50.786;7.058;2024-03-23T10:10:54;100175.81;;;10.49;74.33
67109;BME280;54027;50.786;7.058;2024-03-23T10:13:26;100160.16;;;10.58;72.91
67109;BME280;54027;50.786;7.058;2024-03-23T10:15:59;100153.44;;;10.48;73.70
67109;BME280;54027;50.786;7.058;2024-03-23T10:18:25;100181.28;;;10.31;75.03
67109;BME280;54027;50.786;7.058;2024-03-23T10:21:11;100201.25;;;10.21;75.12
67109;BME280;54027;50.786;7.058;2024-03-23T10:23:44;100250.31;;;10.22;78.25
67109;BME280;54027;50.786;7.058;2024-03-23T10:26:21;100262.44;;;10.17;79.12
67109;BME280;54027;50.786;7.058;2024-03-23T10:28:59;100307.41;;;10.03;80.76
67109;BME280;54027;50.786;7.058;2024-03-23T10:31:33;100326.69;;;9.76;81.33
67109;BME280;54027;50.786;7.058;2024-03-23T10:34:00;100333.09;;;9.39;80.46
67109;BME280;54027;50.786;7.058;2024-03-23T10:36:26;100344.66;;;8.98;80.96
67109;BME280;54027;50.786;7.058;2024-03-23T10:38:52;100379.19;;;8.76;83.96
67109;BME280;54027;50.786;7.058;2024-03-23T10:41:18;100384.34;;;8.78;84.18
67109;BME280;54027;50.786;7.058;2024-03-23T10:43:48;100368.94;;;8.67;83.51
67109;BME280;54027;50.786;7.058;2024-03-23T10:46:14;100363.75;;;8.78;83.29
67109;BME280;54027;50.786;7.058;2024-03-23T10:48:39;100366.25;;;8.82;82.14
67109;BME280;54027;50.786;7.058;2024-03-23T10:51:07;100352.44;;;8.92;81.25
67109;BME280;54027;50.786;7.058;2024-03-23T10:53:33;100356.75;;;8.92;82.38
67109;BME280;54027;50.786;7.058;2024-03-23T10:55:59;100319.72;;;9.00;79.44
67109;BME280;54027;50.786;7.058;2024-03-23T10:58:30;100340.16;;;9.20;81.54
67109;BME280;54027;50.786;7.058;2024-03-23T11:00:56;100306.72;;;9.12;79.54
67109;BME280;54027;50.786;7.058;2024-03-23T11:03:37;100274.28;;;8.89;77.56
67109;BME280;54027;50.786;7.058;2024-03-23T11:06:03;100307.66;;;9.04;79.48
67109;BME280;54027;50.786;7.058;2024-03-23T11:08:39;100330.75;;;9.16;80.15
67109;BME280;54027;50.786;7.058;2024-03-23T11:11:18;100315.19;;;9.24;79.94
67109;BME280;54027;50.786;7.058;2024-03-23T11:13:48;100325.31;;;9.43;80.46
67109;BME280;54027;50.786;7.058;2024-03-23T11:16:14;100285.84;;;9.37;78.73
67109;BME280;54027;50.786;7.058;2024-03-23T11:18:40;100295.25;;;9.39;78.04
67109;BME280;54027;50.786;7.058;2024-03-23T11:21:07;100285.69;;;9.47;78.42
67109;BME280;54027;50.786;7.058;2024-03-23T11:23:33;100299.34;;;9.58;78.08
67109;BME280;54027;50.786;7.058;2024-03-23T11:25:58;100279.63;;;10.20;77.92
67109;BME280;54027;50.786;7.058;2024-03-23T11:28:24;100205.97;;;10.50;73.15
67109;BME280;54027;50.786;7.058;2024-03-23T11:30:49;100213.63;;;10.54;74.75
67109;BME280;54027;50.786;7.058;2024-03-23T11:33:15;100198.91;;;10.58;74.43
67109;BME280;54027;50.786;7.058;2024-03-23T11:35:41;100221.69;;;10.85;75.51
67109;BME280;54027;50.786;7.058;2024-03-23T11:38:08;100225.72;;;10.51;74.50
67109;BME280;54027;50.786;7.058;2024-03-23T11:40:38;100315.78;;;10.18;80.63
67109;BME280;54027;50.786;7.058;2024-03-23T11:43:06;100346.06;;;10.07;82.29
67109;BME280;54027;50.786;7.058;2024-03-23T11:45:39;100235.63;;;10.24;76.74
67109;BME280;54027;50.786;7.058;2024-03-23T11:48:12;100244.97;;;10.84;77.53
67109;BME280;54027;50.786;7.058;2024-03-23T11:50:42;100216.06;;;11.52;75.84
67109;BME280;54027;50.786;7.058;2024-03-23T11:58:05;100071.78;;;11.23;68.43
67109;BME280;54027;50.786;7.058;2024-03-23T12:00:31;100073.84;;;11.08;67.79
67109;BME280;54027;50.786;7.058;2024-03-23T12:03:02;100117.38;;;10.88;70.29
67109;BME280;54027;50.786;7.058;2024-03-23T12:05:29;100151.63;;;10.53;71.39
67109;BME280;54027;50.786;7.058;2024-03-23T12:07:55;100202.56;;;10.46;74.61
67109;BME280;54027;50.786;7.058;2024-03-23T12:10:20;100180.13;;;10.48;73.96
67109;BME280;54027;50.786;7.058;2024-03-23T12:12:46;100196.63;;;10.41;74.10
67109;BME280;54027;50.786;7.058;2024-03-23T12:15:11;100185.03;;;11.09;73.66
67109;BME280;54027;50.786;7.058;2024-03-23T12:17:38;100130.97;;;11.37;71.18
67109;BME280;54027;50.786;7.058;2024-03-23T12:20:04;100117.84;;;11.48;70.52
67109;BME280;54027;50.786;7.058;2024-03-23T12:22:30;100118.41;;;11.20;70.75
67109;BME280;54027;50.786;7.058;2024-03-23T12:24:55;100173.72;;;10.69;73.56
67109;BME280;54027;50.786;7.058;2024-03-23T12:27:21;100177.69;;;10.39;74.56
67109;BME280;54027;50.786;7.058;2024-03-23T12:29:46;100222.22;;;10.55;76.07
67109;BME280;54027;50.786;7.058;2024-03-23T12:32:13;100195.31;;;10.66;74.24
67109;BME280;54027;50.786;7.058;2024-03-23T12:34:39;100159.28;;;10.57;72.39
67109;BME280;54027;50.786;7.058;2024-03-23T12:37:04;100150.91;;;10.91;71.49
67109;BME280;54027;50.786;7.058;2024-03-23T12:39:31;100101.56;;;11.01;69.71
67109;BME280;54027;50.786;7.058;2024-03-23T12:41:57;100146.78;;;10.82;70.37
67109;BME280;54027;50.786;7.058;2024-03-23T12:44:22;100125.97;;;9.92;68.17
67109;BME280;54027;50.786;7.058;2024-03-23T12:46:47;100182.72;;;9.34;70.29
67109;BME280;54027;50.786;7.058;2024-03-23T12:49:13;100195.06;;;9.07;70.32
67109;BME280;54027;50.786;7.058;2024-03-23T12:51:38;100220.34;;;8.71;72.67
67109;BME280;54027;50.786;7.058;2024-03-23T12:54:04;100230.88;;;8.46;73.11
67109;BME280;54027;50.786;7.058;2024-03-23T12:56:29;100264.38;;;8.43;74.15
67109;BME280;54027;50.786;7.058;2024-03-23T12:58:56;100246.44;;;8.33;75.14
67109;BME280;54027;50.786;7.058;2024-03-23T13:01:25;100268.84;;;8.22;75.20
67109;BME280;54027;50.786;7.058;2024-03-23T13:03:50;100272.09;;;8.45;75.11
67109;BME280;54027;50.786;7.058;2024-03-23T13:06:17;100300.63;;;8.18;75.98
67109;BME280;54027;50.786;7.058;2024-03-23T13:08:47;100281.50;;;8.49;75.22
67109;BME280;54027;50.786;7.058;2024-03-23T13:11:13;100275.56;;;8.42;75.23
67109;BME280;54027;50.786;7.058;2024-03-23T13:13:39;100278.09;;;8.47;75.09
67109;BME280;54027;50.786;7.058;2024-03-23T13:16:05;100223.81;;;8.67;73.71
67109;BME280;54027;50.786;7.058;2024-03-23T13:18:31;100250.47;;;8.64;75.36
67109;BME280;54027;50.786;7.058;2024-03-23T13:20:58;100242.25;;;9.12;75.74
67109;BME280;54027;50.786;7.058;2024-03-23T13:23:23;100179.00;;;9.54;72.97
67109;BME280;54027;50.786;7.058;2024-03-23T13:25:53;100147.47;;;9.94;71.44
67109;BME280;54027;50.786;7.058;2024-03-23T13:28:19;100066.22;;;9.62;66.95
67109;BME280;54027;50.786;7.058;2024-03-23T13:30:52;100057.72;;;10.08;66.56
67109;BME280;54027;50.786;7.058;2024-03-23T13:33:18;99961.41;;;10.04;61.89
67109;BME280;54027;50.786;7.058;2024-03-23T13:35:53;99932.53;;;10.27;60.96
67109;BME280;54027;50.786;7.058;2024-03-23T13:38:19;99958.72;;;10.52;61.09
67109;BME280;54027;50.786;7.058;2024-03-23T13:41:00;99979.88;;;11.07;62.74
67109;BME280;54027;50.786;7.058;2024-03-23T13:43:27;99942.00;;;11.05;60.15
67109;BME280;54027;50.786;7.058;2024-03-23T13:45:54;99982.25;;;10.78;62.25
67109;BME280;54027;50.786;7.058;2024-03-23T13:48:21;99987.31;;;10.84;61.92
67109;BME280;54027;50.786;7.058;2024-03-23T13:50:47;99985.31;;;10.95;62.16